Time;durP1;ratioP1;P1;durP2;ratioP2;P2;SDS_P1;SDS_P2;PMS_P1;PMS_P2;Temp;Humidity;BMP_temperature;BMP_pressure;BME280_temperature;BME280_humidity;BME280_pressure;Samples;Min_cycle;Max_cycle;Signal;HPM_P1;HPM_P2
2021/07/02 00:01:46;;;;;;;19.45;17.95;;;14.00;83.40;;;;;;5030078;29;20475;-69
2021/07/02 00:04:17;;;;;;;19.95;18.33;;;14.00;83.40;;;;;;5013242;29;20053;-68
2021/07/02 00:06:49;;;;;;;19.98;18.27;;;14.00;83.40;;;;;;5013485;29;20529;-69
2021/07/02 00:09:21;;;;;;;19.65;18.05;;;14.00;83.40;;;;;;5031349;29;20083;-70
2021/07/02 00:11:53;;;;;;;20.27;18.45;;;14.00;83.20;;;;;;5014125;29;20053;-69
2021/07/02 00:14:25;;;;;;;20.10;18.40;;;14.00;83.10;;;;;;5011952;29;20117;-69
2021/07/02 00:16:57;;;;;;;19.83;18.23;;;14.00;82.90;;;;;;5010214;29;20064;-71
2021/07/02 00:19:32;;;;;;;20.10;18.45;;;14.00;83.10;;;;;;5013711;29;20383;-69
2021/07/02 00:22:04;;;;;;;19.60;18.00;;;14.00;82.90;;;;;;5013176;29;20073;-70
2021/07/02 00:24:36;;;;;;;19.70;18.10;;;14.00;82.70;;;;;;5012402;29;20133;-70
2021/07/02 00:27:08;;;;;;;20.05;18.45;;;14.00;82.90;;;;;;5011433;29;20081;-68
2021/07/02 00:29:39;;;;;;;20.63;18.58;;;14.00;82.80;;;;;;5014964;29;20482;-69
2021/07/02 00:32:11;;;;;;;20.17;18.55;;;14.00;82.60;;;;;;5013035;29;20052;-68
2021/07/02 00:34:43;;;;;;;19.95;18.35;;;14.00;82.40;;;;;;5029502;29;20057;-68
2021/07/02 00:37:15;;;;;;;19.85;18.25;;;14.00;82.90;;;;;;5009944;29;20042;-70
2021/07/02 00:39:47;;;;;;;20.13;18.33;;;14.00;82.90;;;;;;5016670;29;20062;-69
2021/07/02 00:42:19;;;;;;;22.80;18.63;;;14.00;83.70;;;;;;5014775;29;20046;-69
2021/07/02 00:44:51;;;;;;;20.23;18.52;;;14.00;83.70;;;;;;5015605;29;20057;-69
2021/07/02 00:47:24;;;;;;;19.63;18.02;;;14.00;83.70;;;;;;5030627;29;20132;-68
2021/07/02 00:49:55;;;;;;;19.75;18.15;;;14.00;83.20;;;;;;5031229;29;20079;-68
2021/07/02 00:52:28;;;;;;;20.08;18.38;;;14.00;83.30;;;;;;5010405;29;20058;-68
2021/07/02 00:55:00;;;;;;;19.90;18.30;;;14.00;83.10;;;;;;5011371;29;20071;-69
2021/07/02 00:57:32;;;;;;;20.50;18.80;;;13.90;83.60;;;;;;5011993;29;20145;-68
2021/07/02 01:00:07;;;;;;;19.95;18.08;;;13.90;84.10;;;;;;5014528;29;20102;-70
2021/07/02 01:02:40;;;;;;;20.00;18.40;;;13.80;83.90;;;;;;5017268;29;20060;-68
2021/07/02 01:05:13;;;;;;;19.70;18.10;;;13.80;83.70;;;;;;5013252;29;20052;-70
2021/07/02 01:07:47;;;;;;;20.00;18.40;;;13.80;83.80;;;;;;5015766;29;20105;-68
2021/07/02 01:10:20;;;;;;;20.17;18.50;;;13.90;83.60;;;;;;5010160;29;20073;-68
2021/07/02 01:12:53;;;;;;;20.42;18.77;;;13.90;83.60;;;;;;5013832;29;20084;-68
2021/07/02 01:15:26;;;;;;;20.90;18.98;;;13.90;82.80;;;;;;5009122;29;20053;-69
2021/07/02 01:18:08;;;;;;;20.75;19.05;;;13.80;83.60;;;;;;5015504;29;20710;-69
2021/07/02 01:20:46;;;;;;;21.10;19.40;;;13.80;83.70;;;;;;5015477;29;20077;-69
2021/07/02 01:23:19;;;;;;;20.80;19.10;;;13.80;83.10;;;;;;5011816;29;20038;-69
2021/07/02 01:25:51;;;;;;;21.13;19.13;;;13.70;84.00;;;;;;5031061;29;20046;-70
2021/07/02 01:28:23;;;;;;;20.35;18.65;;;13.70;83.90;;;;;;5029377;29;20532;-71
2021/07/02 01:30:55;;;;;;;21.63;19.48;;;13.60;83.50;;;;;;5012644;29;20050;-71
2021/07/02 01:33:27;;;;;;;20.17;18.58;;;13.60;83.60;;;;;;5013986;29;20102;-70
2021/07/02 01:36:07;;;;;;;20.17;18.58;;;13.70;83.90;;;;;;5015012;29;20050;-69
2021/07/02 01:38:39;;;;;;;21.13;19.42;;;13.60;83.70;;;;;;5019752;29;20073;-69
2021/07/02 01:41:11;;;;;;;20.92;19.23;;;13.60;82.90;;;;;;5027203;29;20050;-68
2021/07/02 01:43:44;;;;;;;20.50;18.80;;;13.50;81.90;;;;;;5029904;29;20057;-68
2021/07/02 01:46:18;;;;;;;20.35;18.65;;;13.60;81.60;;;;;;5016094;29;20060;-69
2021/07/02 01:48:51;;;;;;;20.88;19.17;;;13.50;82.80;;;;;;5014585;29;20150;-71
2021/07/02 01:51:27;;;;;;;21.23;19.42;;;13.50;82.70;;;;;;5014902;29;20052;-68
2021/07/02 01:53:59;;;;;;;20.23;18.52;;;13.50;82.50;;;;;;5029228;29;20049;-68
2021/07/02 01:56:32;;;;;;;21.25;19.45;;;13.50;82.30;;;;;;5009768;29;20062;-68
2021/07/02 01:59:04;;;;;;;20.75;18.95;;;13.40;82.60;;;;;;5013263;29;20042;-68
2021/07/02 02:01:53;;;;;;;20.83;19.13;;;13.40;82.90;;;;;;5009402;29;20050;-69
2021/07/02 02:04:29;;;;;;;20.48;18.73;;;13.40;83.10;;;;;;5010529;29;20071;-70
2021/07/02 02:07:02;;;;;;;21.05;19.35;;;13.40;83.30;;;;;;5018148;29;20134;-69
2021/07/02 02:09:34;;;;;;;20.55;18.90;;;13.40;82.90;;;;;;5018442;29;20041;-69
2021/07/02 02:12:07;;;;;;;20.83;19.13;;;13.40;82.40;;;;;;5014251;29;20049;-69
2021/07/02 02:14:45;;;;;;;20.65;18.98;;;13.40;82.50;;;;;;5019192;29;20053;-69
2021/07/02 02:17:18;;;;;;;20.83;19.02;;;13.40;82.40;;;;;;5017135;29;20041;-68
2021/07/02 02:19:53;;;;;;;20.80;19.02;;;13.40;82.10;;;;;;5006214;29;20578;-69
2021/07/02 02:22:25;;;;;;;21.05;19.27;;;13.40;81.40;;;;;;5012828;29;20081;-70
2021/07/02 02:24:59;;;;;;;20.40;18.70;;;13.40;82.30;;;;;;5017127;29;20145;-68
2021/07/02 02:27:32;;;;;;;20.98;19.00;;;13.30;82.70;;;;;;5015247;29;20914;-69
2021/07/02 02:30:08;;;;;;;21.10;19.33;;;13.30;82.60;;;;;;5015408;29;20707;-68
2021/07/02 02:32:41;;;;;;;21.25;19.27;;;13.30;82.60;;;;;;5017489;29;20755;-68
2021/07/02 02:35:23;;;;;;;21.02;19.02;;;13.30;82.80;;;;;;5011690;29;20064;-70
2021/07/02 02:38:01;;;;;;;20.85;19.10;;;13.30;82.70;;;;;;5015354;29;20029;-70
2021/07/02 02:40:35;;;;;;;20.35;18.55;;;13.30;82.60;;;;;;5018333;29;20140;-70
2021/07/02 02:43:08;;;;;;;20.67;18.88;;;13.30;82.50;;;;;;5029828;29;20050;-69
2021/07/02 02:45:40;;;;;;;20.83;19.13;;;13.30;82.70;;;;;;5014677;29;20045;-69
2021/07/02 02:48:12;;;;;;;20.77;19.08;;;13.20;82.00;;;;;;5016467;29;20133;-69
2021/07/02 02:50:44;;;;;;;21.35;19.65;;;13.20;81.30;;;;;;5027514;29;20049;-69
2021/07/02 02:53:16;;;;;;;21.42;19.63;;;13.10;81.30;;;;;;5021604;29;20065;-68
2021/07/02 02:55:48;;;;;;;21.38;19.58;;;13.10;81.60;;;;;;5011819;29;20165;-69
2021/07/02 02:58:21;;;;;;;21.27;19.48;;;13.10;81.70;;;;;;5018512;29;20082;-68
2021/07/02 03:00:54;;;;;;;20.88;19.05;;;13.00;81.50;;;;;;5019235;29;20058;-70
2021/07/02 03:03:26;;;;;;;20.50;18.80;;;13.00;81.70;;;;;;5019134;29;20065;-70
2021/07/02 03:06:14;;;;;;;20.95;19.20;;;13.00;81.30;;;;;;5016091;29;20053;-70
2021/07/02 03:08:47;;;;;;;20.98;19.27;;;13.00;82.00;;;;;;5016523;29;20060;-69
2021/07/02 03:11:21;;;;;;;20.85;19.10;;;13.00;82.00;;;;;;5017909;29;20042;-69
2021/07/02 03:13:55;;;;;;;21.17;19.30;;;12.90;82.20;;;;;;5030574;29;20105;-69
2021/07/02 03:16:27;;;;;;;20.65;18.95;;;12.80;82.10;;;;;;5009840;29;20595;-69
2021/07/02 03:18:59;;;;;;;20.60;18.90;;;12.90;82.50;;;;;;5014223;29;20054;-71
2021/07/02 03:21:31;;;;;;;20.50;18.80;;;12.90;82.60;;;;;;5013520;29;20042;-69
2021/07/02 03:24:04;;;;;;;21.00;19.30;;;12.90;82.90;;;;;;5012867;29;20101;-69
2021/07/02 03:26:37;;;;;;;20.55;18.88;;;12.90;83.00;;;;;;5016303;29;20045;-70
2021/07/02 03:29:09;;;;;;;20.70;19.00;;;12.90;82.70;;;;;;5019833;29;20057;-69
2021/07/02 03:31:41;;;;;;;20.73;19.00;;;12.90;82.80;;;;;;5013775;29;20045;-69
2021/07/02 03:34:14;;;;;;;20.52;18.83;;;13.00;82.80;;;;;;5013707;29;20045;-69
2021/07/02 03:36:47;;;;;;;21.17;19.48;;;13.00;82.80;;;;;;5002150;29;20050;-69
2021/07/02 03:39:19;;;;;;;20.77;18.98;;;13.00;83.20;;;;;;5013641;29;20073;-69
2021/07/02 03:41:51;;;;;;;19.88;18.27;;;13.00;83.20;;;;;;5016817;29;20514;-69
2021/07/02 03:44:24;;;;;;;20.17;18.58;;;13.00;83.70;;;;;;5027317;29;20106;-69
2021/07/02 03:46:56;;;;;;;21.50;19.45;;;13.10;83.10;;;;;;5027954;29;20054;-70
2021/07/02 03:49:29;;;;;;;21.67;19.67;;;13.00;82.60;;;;;;5013213;29;20174;-69
2021/07/02 03:52:02;;;;;;;20.85;19.00;;;13.00;82.20;;;;;;5018011;29;20049;-69
2021/07/02 03:54:34;;;;;;;20.05;18.45;;;13.00;82.90;;;;;;5012229;29;20038;-71
2021/07/02 03:57:13;;;;;;;20.15;18.27;;;13.00;83.20;;;;;;5013435;29;20053;-69
2021/07/02 03:59:48;;;;;;;20.27;18.58;;;13.10;82.80;;;;;;5015472;29;20735;-69
2021/07/02 04:02:20;;;;;;;21.02;19.13;;;13.10;83.10;;;;;;5013237;29;20145;-69
2021/07/02 04:04:52;;;;;;;21.00;19.30;;;13.10;83.10;;;;;;5011817;29;20114;-69
2021/07/02 04:07:25;;;;;;;21.17;19.45;;;13.20;83.20;;;;;;5011147;29;20177;-70
2021/07/02 04:09:57;;;;;;;21.00;19.20;;;13.20;83.50;;;;;;5014412;29;20042;-68
2021/07/02 04:12:29;;;;;;;21.45;19.50;;;13.20;83.60;;;;;;5012712;29;20686;-69
2021/07/02 04:15:01;;;;;;;21.27;19.48;;;13.20;83.40;;;;;;5016365;29;21037;-69
2021/07/02 04:17:33;;;;;;;20.83;19.13;;;13.20;82.60;;;;;;5011435;29;20800;-69
2021/07/02 04:20:09;;;;;;;20.45;18.85;;;13.20;84.50;;;;;;5010971;29;20613;-69
2021/07/02 04:22:41;;;;;;;20.80;19.10;;;13.20;85.00;;;;;;5013172;29;20125;-69
2021/07/02 04:25:13;;;;;;;21.15;19.35;;;13.20;84.80;;;;;;5014275;29;20037;-69
2021/07/02 04:27:45;;;;;;;21.30;19.50;;;13.30;84.50;;;;;;5012961;29;20136;-69
2021/07/02 04:30:18;;;;;;;21.33;19.40;;;13.30;84.60;;;;;;5013860;29;20074;-69
2021/07/02 04:32:50;;;;;;;21.02;19.25;;;13.40;84.40;;;;;;5012425;29;20082;-69
2021/07/02 04:35:21;;;;;;;20.90;19.30;;;13.40;84.20;;;;;;5012454;29;20589;-69
2021/07/02 04:37:53;;;;;;;20.42;18.83;;;13.50;84.00;;;;;;5013846;29;20098;-69
2021/07/02 04:40:25;;;;;;;20.15;18.42;;;13.50;83.80;;;;;;5013919;29;20045;-69
2021/07/02 04:42:57;;;;;;;20.15;18.55;;;13.50;83.80;;;;;;5014477;29;20152;-69
2021/07/02 04:45:29;;;;;;;19.90;18.23;;;13.50;83.90;;;;;;5008425;29;20046;-69
2021/07/02 04:48:01;;;;;;;20.48;18.77;;;13.50;84.00;;;;;;5014401;29;20081;-69
2021/07/02 04:50:33;;;;;;;20.02;18.33;;;13.50;83.90;;;;;;5010007;29;20584;-68
2021/07/02 04:53:05;;;;;;;19.67;18.17;;;13.60;83.80;;;;;;5015236;29;20064;-69
2021/07/02 04:55:37;;;;;;;19.80;18.25;;;13.60;84.30;;;;;;5011754;29;20081;-68
2021/07/02 04:58:09;;;;;;;20.15;18.55;;;13.70;83.90;;;;;;5012013;29;20064;-68
2021/07/02 05:00:40;;;;;;;20.33;18.63;;;13.60;83.70;;;;;;5012804;29;20061;-69
2021/07/02 05:03:12;;;;;;;20.15;18.55;;;13.70;83.60;;;;;;5026698;29;20825;-69
2021/07/02 05:05:44;;;;;;;20.27;18.58;;;13.70;83.60;;;;;;5010615;29;20133;-70
2021/07/02 05:08:17;;;;;;;20.25;18.65;;;13.90;83.70;;;;;;5011551;29;20065;-69
2021/07/02 05:10:49;;;;;;;20.20;18.60;;;14.00;83.70;;;;;;5010625;29;20111;-69
2021/07/02 05:13:21;;;;;;;20.15;18.52;;;14.10;83.60;;;;;;5009309;29;20050;-71
2021/07/02 05:15:53;;;;;;;20.65;18.85;;;14.10;83.80;;;;;;5012808;29;20127;-69
2021/07/02 05:18:25;;;;;;;20.33;18.70;;;14.20;83.50;;;;;;5011825;29;20172;-71
2021/07/02 05:20:57;;;;;;;20.75;18.95;;;14.20;83.50;;;;;;5013164;29;21060;-70
2021/07/02 05:23:29;;;;;;;19.90;18.23;;;14.20;84.00;;;;;;5012692;29;20129;-71
2021/07/02 05:26:02;;;;;;;20.67;18.92;;;14.30;84.00;;;;;;5011955;29;20810;-69
2021/07/02 05:28:35;;;;;;;20.65;18.95;;;14.40;83.70;;;;;;5010873;29;20041;-70
2021/07/02 05:31:08;;;;;;;20.27;18.67;;;14.50;83.70;;;;;;5009541;29;20045;-71
2021/07/02 05:33:39;;;;;;;20.75;18.90;;;14.60;83.40;;;;;;5010411;29;20060;-71
2021/07/02 05:36:12;;;;;;;21.17;19.38;;;14.80;82.50;;;;;;5009951;29;20075;-72
2021/07/02 05:38:44;;;;;;;19.92;18.35;;;15.00;82.50;;;;;;5010967;29;20469;-72
2021/07/02 05:41:16;;;;;;;20.77;18.98;;;15.20;82.10;;;;;;5013669;29;20060;-72
2021/07/02 05:43:49;;;;;;;20.48;18.77;;;15.30;80.70;;;;;;5029647;29;20075;-72
2021/07/02 05:46:21;;;;;;;20.30;18.58;;;15.50;80.30;;;;;;5012126;29;20041;-72
2021/07/02 05:48:53;;;;;;;20.52;18.92;;;15.50;79.70;;;;;;5029492;29;20413;-73
2021/07/02 05:51:25;;;;;;;20.40;18.70;;;15.60;79.60;;;;;;5010993;29;20050;-73
2021/07/02 05:53:57;;;;;;;20.52;18.80;;;15.70;79.20;;;;;;5028670;29;20077;-72
2021/07/02 05:56:29;;;;;;;20.23;18.63;;;15.80;78.50;;;;;;5008097;29;20081;-74
2021/07/02 05:59:01;;;;;;;20.80;19.10;;;15.80;79.10;;;;;;5024412;29;20141;-73
2021/07/02 06:01:33;;;;;;;20.85;18.95;;;16.00;79.60;;;;;;5012710;29;20077;-74
2021/07/02 06:04:05;;;;;;;20.67;18.80;;;16.10;79.00;;;;;;5011878;29;20060;-73
2021/07/02 06:06:37;;;;;;;20.45;18.75;;;16.20;79.00;;;;;;5013157;29;20694;-73
2021/07/02 06:09:09;;;;;;;20.63;18.88;;;16.40;80.20;;;;;;5011317;29;20057;-72
2021/07/02 06:11:40;;;;;;;21.02;19.13;;;16.40;78.80;;;;;;5010342;29;20084;-73
2021/07/02 06:14:12;;;;;;;20.98;19.20;;;16.50;78.90;;;;;;5010298;29;20048;-73
2021/07/02 06:16:44;;;;;;;20.92;19.23;;;16.60;78.20;;;;;;5010211;29;20085;-73
2021/07/02 06:19:16;;;;;;;20.25;18.65;;;16.70;77.30;;;;;;5013429;29;20053;-73
2021/07/02 06:21:48;;;;;;;20.77;19.08;;;16.80;77.90;;;;;;5011999;29;20102;-73
2021/07/02 06:24:20;;;;;;;20.63;19.02;;;17.00;78.30;;;;;;5012602;29;20050;-73
2021/07/02 06:26:52;;;;;;;20.88;19.08;;;17.20;77.60;;;;;;5015778;29;20055;-73
2021/07/02 06:29:24;;;;;;;21.30;19.60;;;17.30;75.80;;;;;;5027830;29;20560;-72
2021/07/02 06:31:56;;;;;;;22.00;20.10;;;17.50;75.20;;;;;;5009554;29;20861;-72
2021/07/02 06:34:31;;;;;;;21.60;19.80;;;17.70;75.90;;;;;;5011186;29;20050;-73
2021/07/02 06:37:03;;;;;;;21.38;19.67;;;17.80;73.70;;;;;;5025175;29;20061;-73
2021/07/02 06:39:35;;;;;;;21.58;19.85;;;18.00;73.70;;;;;;5011298;29;20041;-73
2021/07/02 06:42:07;;;;;;;22.42;20.52;;;18.10;75.10;;;;;;5008891;29;20058;-72
2021/07/02 06:44:39;;;;;;;22.02;20.15;;;18.10;73.20;;;;;;5011735;29;20101;-73
2021/07/02 06:47:11;;;;;;;22.70;20.70;;;18.20;73.80;;;;;;5010643;29;20771;-72
2021/07/02 06:49:43;;;;;;;22.38;20.58;;;18.40;72.70;;;;;;5013314;29;20114;-73
2021/07/02 06:52:15;;;;;;;22.80;20.90;;;18.50;72.40;;;;;;5013162;29;20045;-73
2021/07/02 06:54:47;;;;;;;22.30;20.52;;;18.60;70.80;;;;;;5015425;29;20168;-73
2021/07/02 06:57:19;;;;;;;23.13;21.30;;;18.60;72.10;;;;;;5015458;29;20074;-73
2021/07/02 06:59:51;;;;;;;22.70;20.85;;;18.70;71.60;;;;;;5015297;29;20156;-74
2021/07/02 07:02:23;;;;;;;23.15;21.10;;;18.70;72.50;;;;;;5014120;29;20128;-74
2021/07/02 07:04:55;;;;;;;22.98;21.08;;;18.70;71.10;;;;;;5033908;29;20160;-74
2021/07/02 07:07:29;;;;;;;23.13;21.23;;;18.80;70.40;;;;;;5019488;29;20064;-73
2021/07/02 07:10:03;;;;;;;22.67;20.88;;;18.90;69.50;;;;;;5018198;29;20054;-73
2021/07/02 07:12:35;;;;;;;23.23;21.23;;;19.00;70.00;;;;;;5013726;29;20130;-74
2021/07/02 07:15:09;;;;;;;22.52;20.73;;;19.20;70.40;;;;;;5015520;29;20050;-73
2021/07/02 07:17:41;;;;;;;22.63;20.83;;;19.40;69.50;;;;;;5014810;29;20073;-74
2021/07/02 07:20:13;;;;;;;22.73;20.83;;;19.40;68.30;;;;;;5012226;29;20054;-73
2021/07/02 07:22:46;;;;;;;22.70;20.80;;;19.30;67.80;;;;;;5011304;29;20061;-74
2021/07/02 07:25:20;;;;;;;23.50;21.30;;;19.30;69.70;;;;;;5013623;29;20128;-73
2021/07/02 07:27:52;;;;;;;23.23;21.33;;;19.50;70.10;;;;;;5013636;29;20057;-73
2021/07/02 07:30:25;;;;;;;22.50;20.70;;;19.50;69.50;;;;;;5016414;29;20395;-72
2021/07/02 07:32:57;;;;;;;22.50;20.70;;;19.70;66.50;;;;;;5012761;29;20049;-73
2021/07/02 07:35:48;;;;;;;22.52;20.70;;;19.50;70.40;;;;;;5014291;29;20086;-73
2021/07/02 07:38:20;;;;;;;22.80;20.75;;;19.60;70.40;;;;;;5029358;29;20054;-73
2021/07/02 07:40:55;;;;;;;25.63;20.95;;;19.40;68.00;;;;;;5020768;29;20065;-73
2021/07/02 07:43:27;;;;;;;22.85;20.75;;;19.40;68.10;;;;;;5012297;29;20038;-72
2021/07/02 07:46:00;;;;;;;22.98;20.98;;;19.50;68.20;;;;;;5011422;29;20145;-73
2021/07/02 07:48:31;;;;;;;23.50;21.40;;;19.60;67.40;;;;;;5012752;29;20113;-73
2021/07/02 07:51:32;;;;;;;23.23;21.08;;;19.60;66.40;;;;;;5014158;29;20109;-72
2021/07/02 07:54:03;;;;;;;;;;;19.60;68.50;;;;;;5011461;29;20700;-73
2021/07/02 07:56:36;;;;;;;22.25;20.40;;;19.50;65.30;;;;;;5017300;29;20349;-72
2021/07/02 07:59:08;;;;;;;22.48;20.65;;;19.80;69.10;;;;;;5015183;29;20390;-72
2021/07/02 08:01:39;;;;;;;23.27;21.30;;;19.70;68.10;;;;;;5012888;29;20424;-71
2021/07/02 08:04:14;;;;;;;22.67;20.60;;;19.90;68.50;;;;;;5015009;29;20188;-72
2021/07/02 08:06:47;;;;;;;22.52;20.63;;;19.90;64.20;;;;;;5013624;29;20153;-73
2021/07/02 08:09:20;;;;;;;22.02;20.23;;;19.80;63.20;;;;;;5017167;29;20463;-73
2021/07/02 08:11:51;;;;;;;22.58;20.73;;;19.60;64.80;;;;;;5012277;29;20157;-72
2021/07/02 08:14:23;;;;;;;23.50;21.60;;;19.60;64.10;;;;;;5012148;29;20053;-72
2021/07/02 08:16:55;;;;;;;22.05;20.30;;;19.80;63.60;;;;;;5015806;29;20053;-73
2021/07/02 08:19:27;;;;;;;21.65;19.92;;;19.80;60.30;;;;;;5013620;29;20334;-72
2021/07/02 08:21:59;;;;;;;22.40;20.50;;;19.80;62.70;;;;;;5012984;29;20518;-72
2021/07/02 08:24:31;;;;;;;22.52;20.63;;;19.90;64.10;;;;;;5012755;29;20433;-72
2021/07/02 08:27:05;;;;;;;22.15;20.30;;;20.10;60.10;;;;;;5012213;29;20402;-72
2021/07/02 08:29:37;;;;;;;22.30;20.50;;;20.10;63.60;;;;;;5013206;29;20073;-72
2021/07/02 08:32:09;;;;;;;22.25;20.45;;;20.20;60.70;;;;;;5029667;29;20488;-72
2021/07/02 08:34:41;;;;;;;23.02;21.02;;;20.40;59.30;;;;;;5014044;29;20085;-73
2021/07/02 08:37:13;;;;;;;23.05;21.13;;;20.40;58.90;;;;;;5009621;29;20106;-73
2021/07/02 08:39:47;;;;;;;22.40;20.50;;;20.30;59.90;;;;;;5013646;29;20311;-72
2021/07/02 08:42:20;;;;;;;22.73;20.92;;;20.30;57.10;;;;;;5026878;29;20081;-73
2021/07/02 08:44:52;;;;;;;22.38;20.58;;;20.30;57.40;;;;;;5013983;29;20129;-72
2021/07/02 08:47:24;;;;;;;22.77;20.88;;;20.50;61.90;;;;;;5009791;29;20144;-73
2021/07/02 08:49:57;;;;;;;23.13;21.23;;;20.70;59.90;;;;;;5013862;29;20437;-72
2021/07/02 08:52:30;;;;;;;22.90;20.95;;;20.90;56.60;;;;;;5014245;29;20174;-72
2021/07/02 08:55:05;;;;;;;22.50;20.60;;;20.80;57.50;;;;;;5013861;29;20777;-73
2021/07/02 08:57:37;;;;;;;22.98;21.08;;;20.70;56.60;;;;;;5013804;29;20049;-72
2021/07/02 09:00:13;;;;;;;23.02;20.95;;;21.00;59.50;;;;;;5030539;29;21037;-72
2021/07/02 09:02:46;;;;;;;21.98;20.27;;;20.80;56.90;;;;;;5013188;29;20129;-72
2021/07/02 09:05:38;;;;;;;22.45;20.65;;;20.80;56.00;;;;;;5011529;29;20049;-72
2021/07/02 09:08:15;;;;;;;22.42;20.63;;;20.80;55.20;;;;;;5015614;29;20056;-72
2021/07/02 09:10:49;;;;;;;23.15;21.25;;;20.80;56.10;;;;;;5010202;29;20045;-74
2021/07/02 09:13:42;;;;;;;22.75;20.85;;;20.90;56.00;;;;;;5013560;29;20065;-72
2021/07/02 09:16:20;;;;;;;22.98;21.17;;;20.90;55.30;;;;;;5008625;29;20540;-72
2021/07/02 09:18:52;;;;;;;22.63;20.92;;;21.00;56.10;;;;;;5012952;29;20041;-72
2021/07/02 09:21:29;;;;;;;22.25;20.45;;;21.00;54.80;;;;;;5009387;29;20144;-72
2021/07/02 09:24:04;;;;;;;22.30;20.50;;;21.00;54.00;;;;;;5010062;29;20064;-72
2021/07/02 09:26:39;;;;;;;22.23;20.52;;;20.90;54.00;;;;;;5016318;29;20482;-72
2021/07/02 09:29:24;;;;;;;21.75;20.05;;;21.00;55.20;;;;;;5011679;29;20109;-73
2021/07/02 09:31:58;;;;;;;22.75;20.65;;;21.00;53.00;;;;;;5011185;29;20860;-73
2021/07/02 09:35:05;;;;;;;22.35;20.58;;;21.10;54.20;;;;;;5010346;29;20426;-74
2021/07/02 09:38:12;;;;;;;22.08;20.38;;;21.30;55.00;;;;;;4996920;29;20065;-73
2021/07/02 09:40:37;;;;;;;22.33;20.63;;;21.50;55.80;;;;;;5011313;29;20136;-74
2021/07/02 09:43:15;;;;;;;21.88;20.17;;;21.50;52.90;;;;;;5029999;29;20058;-73
2021/07/02 09:45:55;;;;;;;22.00;20.30;;;21.50;52.90;;;;;;5008724;29;20122;-73
2021/07/02 09:48:29;;;;;;;21.65;19.95;;;21.50;54.50;;;;;;5013615;29;20115;-74
2021/07/02 09:51:06;;;;;;;21.48;19.73;;;21.20;51.00;;;;;;5013133;29;20073;-74
2021/07/02 09:53:40;;;;;;;21.63;19.92;;;21.30;53.10;;;;;;5010716;29;20102;-73
2021/07/02 09:56:18;;;;;;;21.27;19.58;;;21.40;55.30;;;;;;5015657;29;20132;-73
2021/07/02 09:58:50;;;;;;;21.80;20.10;;;21.60;53.10;;;;;;5027714;29;20106;-71
2021/07/02 10:01:25;;;;;;;21.50;19.70;;;21.60;49.30;;;;;;5011208;29;20080;-73
2021/07/02 10:04:07;;;;;;;21.10;19.33;;;21.50;52.30;;;;;;5011609;29;20056;-73
2021/07/02 10:06:39;;;;;;;20.02;18.52;;;21.60;51.00;;;;;;5012869;29;20518;-72
2021/07/02 10:09:11;;;;;;;20.85;19.20;;;21.40;51.10;;;;;;5009245;29;20052;-74
2021/07/02 10:11:43;;;;;;;21.17;19.48;;;21.60;51.40;;;;;;5015971;29;20073;-73
2021/07/02 10:14:16;;;;;;;20.35;18.75;;;21.80;52.90;;;;;;5009641;29;20871;-72
2021/07/02 10:16:48;;;;;;;20.88;19.27;;;21.80;48.20;;;;;;5009537;29;20132;-71
2021/07/02 10:19:20;;;;;;;21.25;19.58;;;21.70;48.60;;;;;;5010554;29;20053;-71
2021/07/02 10:21:52;;;;;;;21.27;19.58;;;21.70;48.90;;;;;;5012608;29;20054;-72
2021/07/02 10:24:25;;;;;;;21.00;19.35;;;21.80;49.30;;;;;;5011580;29;20520;-72
2021/07/02 10:26:57;;;;;;;21.15;19.55;;;21.90;51.70;;;;;;5014687;29;20049;-71
2021/07/02 10:29:32;;;;;;;20.65;19.05;;;22.00;51.10;;;;;;5004721;29;20124;-70
2021/07/02 10:32:04;;;;;;;20.80;19.20;;;22.20;48.80;;;;;;5013039;29;20080;-70
2021/07/02 10:34:38;;;;;;;20.88;19.25;;;22.20;47.30;;;;;;5014343;29;20045;-71
2021/07/02 10:37:10;;;;;;;20.35;18.85;;;22.30;48.90;;;;;;5015440;29;20042;-71
2021/07/02 10:39:45;;;;;;;20.58;19.02;;;22.30;46.20;;;;;;5018526;29;20556;-72
2021/07/02 10:42:17;;;;;;;20.73;19.13;;;22.30;46.60;;;;;;5028798;29;20203;-72
2021/07/02 10:44:52;;;;;;;20.63;18.98;;;22.20;45.20;;;;;;5013010;29;20165;-71
2021/07/02 10:47:25;;;;;;;20.50;18.83;;;22.30;45.90;;;;;;5015025;29;20725;-72
2021/07/02 10:49:57;;;;;;;20.85;19.25;;;22.40;45.40;;;;;;5014674;29;20137;-73
2021/07/02 10:52:31;;;;;;;20.80;19.15;;;22.50;47.00;;;;;;5015774;29;20156;-73
2021/07/02 10:55:05;;;;;;;20.75;19.10;;;22.50;45.90;;;;;;5012692;29;20082;-71
2021/07/02 10:57:52;;;;;;;20.58;19.08;;;22.50;44.50;;;;;;5013526;29;20491;-71
2021/07/02 11:00:24;;;;;;;21.45;19.30;;;22.50;43.70;;;;;;5013961;29;20525;-72
2021/07/02 11:03:19;;;;;;;20.98;19.35;;;22.60;46.70;;;;;;5017587;29;20046;-76
2021/07/02 11:05:51;;;;;;;20.75;19.05;;;22.80;42.70;;;;;;5015118;29;20831;-73
2021/07/02 11:08:43;;;;;;;28.95;19.48;;;23.00;46.40;;;;;;5015047;29;20047;-74
2021/07/02 11:11:15;;;;;;;21.20;19.50;;;23.10;43.00;;;;;;5012556;29;20079;-72
2021/07/02 11:14:09;;;;;;;21.98;19.77;;;23.10;43.90;;;;;;5014048;29;20077;-73
2021/07/02 11:17:20;;;;;;;21.88;19.77;;;23.10;45.00;;;;;;5012761;29;20535;-75
2021/07/02 11:20:10;;;;;;;21.73;19.75;;;23.30;45.00;;;;;;5009187;29;20532;-73
2021/07/02 11:23:01;;;;;;;21.85;20.05;;;23.40;41.00;;;;;;5010786;29;20057;-73
2021/07/02 11:25:54;;;;;;;21.25;19.30;;;23.40;42.90;;;;;;5010589;29;20046;-73
2021/07/02 11:28:44;;;;;;;21.42;19.63;;;23.60;41.80;;;;;;5014023;29;20038;-73
2021/07/02 11:31:18;;;;;;;21.20;19.52;;;23.70;44.70;;;;;;5013695;29;20038;-74
2021/07/02 11:33:51;;;;;;;22.38;20.15;;;23.80;44.00;;;;;;5018292;29;20050;-73
2021/07/02 11:36:22;;;;;;;21.33;19.63;;;24.00;45.90;;;;;;5012467;29;20522;-73
2021/07/02 11:38:55;;;;;;;23.15;20.58;;;24.10;46.00;;;;;;5018824;29;20045;-73
2021/07/02 11:41:30;;;;;;;21.42;19.67;;;24.30;43.60;;;;;;5013911;29;20094;-74
2021/07/02 11:44:03;;;;;;;20.65;19.05;;;24.20;45.90;;;;;;5013756;29;20140;-74
2021/07/02 11:46:35;;;;;;;21.75;19.83;;;24.20;41.80;;;;;;5014138;29;20118;-74
2021/07/02 11:49:08;;;;;;;21.30;19.60;;;24.20;40.40;;;;;;5018649;29;20076;-74
2021/07/02 11:51:40;;;;;;;22.05;19.90;;;24.00;40.90;;;;;;5013952;29;20141;-74
2021/07/02 11:54:15;;;;;;;21.35;19.55;;;24.10;41.80;;;;;;5011793;29;20124;-73
2021/07/02 11:56:48;;;;;;;21.90;19.98;;;24.10;42.40;;;;;;5014431;29;20089;-74
2021/07/02 11:59:21;;;;;;;21.40;19.70;;;24.20;41.30;;;;;;5014430;29;20529;-75
2021/07/02 12:01:56;;;;;;;21.30;19.70;;;24.10;40.70;;;;;;5014589;29;20050;-75
2021/07/02 12:04:32;;;;;;;21.50;19.80;;;24.00;43.60;;;;;;5030595;29;20037;-76
2021/07/02 12:07:08;;;;;;;20.63;19.02;;;24.20;41.70;;;;;;5028897;29;20189;-76
2021/07/02 12:09:44;;;;;;;28.55;19.98;;;24.10;39.80;;;;;;5031593;29;20049;-75
2021/07/02 12:12:20;;;;;;;21.02;19.23;;;24.00;39.70;;;;;;5012347;29;20050;-75
2021/07/02 12:14:52;;;;;;;20.95;19.35;;;24.00;39.90;;;;;;5016886;29;20050;-74
2021/07/02 12:17:24;;;;;;;21.10;19.40;;;24.00;39.70;;;;;;5011146;29;20106;-73
2021/07/02 12:19:56;;;;;;;20.92;19.23;;;24.00;39.30;;;;;;5013185;29;20513;-74
2021/07/02 12:22:28;;;;;;;20.85;19.25;;;24.10;38.50;;;;;;5012752;29;20057;-74
2021/07/02 12:25:00;;;;;;;20.75;19.10;;;24.10;37.90;;;;;;5012386;29;20053;-74
2021/07/02 12:27:32;;;;;;;20.88;19.27;;;24.00;38.70;;;;;;5012212;29;20113;-73
2021/07/02 12:30:09;;;;;;;20.75;19.15;;;24.10;35.90;;;;;;5016935;29;20076;-73
2021/07/02 12:32:51;;;;;;;20.65;19.02;;;24.00;36.20;;;;;;5012439;29;20082;-74
2021/07/02 12:35:23;;;;;;;19.95;18.35;;;24.10;39.10;;;;;;5011151;29;20130;-74
2021/07/02 12:37:55;;;;;;;20.42;18.83;;;24.20;36.40;;;;;;5011500;29;20110;-75
2021/07/02 12:40:27;;;;;;;20.60;19.00;;;24.10;35.60;;;;;;4999551;29;20077;-75
2021/07/02 12:42:59;;;;;;;20.52;18.92;;;24.10;37.00;;;;;;5011869;29;20049;-74
2021/07/02 12:45:32;;;;;;;20.35;18.75;;;24.20;35.60;;;;;;5009235;29;20126;-74
2021/07/02 12:48:12;;;;;;;20.33;18.73;;;24.20;38.70;;;;;;5027734;29;20041;-74
2021/07/02 12:50:45;;;;;;;20.73;18.95;;;24.30;35.90;;;;;;5021611;29;20073;-74
2021/07/02 12:56:07;;;;;;;20.25;18.65;;;24.40;38.90;;;;;;5009788;29;20053;-74
2021/07/02 12:58:40;;;;;;;20.58;18.98;;;24.30;36.70;;;;;;5013642;29;20160;-73
2021/07/02 13:01:11;;;;;;;20.80;19.05;;;24.20;36.80;;;;;;5012284;29;20130;-74
2021/07/02 13:03:43;;;;;;;21.30;19.38;;;24.30;38.10;;;;;;5013762;29;20054;-75
2021/07/02 13:06:20;;;;;;;20.85;19.15;;;24.50;38.30;;;;;;5012689;29;20160;-72